createdAt,value
2018-12-27T00:00:25.768Z,98.49
2018-12-27T00:01:24.293Z,98.44
2018-12-27T00:03:57.829Z,98.35
2018-12-27T00:04:56.357Z,98.49
2018-12-27T00:05:55.135Z,98.58
2018-12-27T00:06:53.895Z,98.11
2018-12-27T00:07:52.467Z,98.72
2018-12-27T00:08:50.995Z,98.44
2018-12-27T00:09:49.582Z,98.68
2018-12-27T00:10:48.148Z,98.16
2018-12-27T00:11:46.955Z,98.21
2018-12-27T00:12:45.562Z,98.3
2018-12-27T00:13:44.112Z,98.06
2018-12-27T00:14:42.732Z,98.16
2018-12-27T00:15:41.332Z,98.25
2018-12-27T00:16:39.877Z,98.25
2018-12-27T00:17:38.430Z,98.21
2018-12-27T00:18:37.145Z,97.73
2018-12-27T00:19:35.708Z,97.64
2018-12-27T00:20:34.277Z,97.83
2018-12-27T00:21:33.100Z,97.64
2018-12-27T00:22:31.655Z,97.83
2018-12-27T00:23:30.187Z,97.26
2018-12-27T00:24:28.691Z,97.07
2018-12-27T00:25:27.463Z,97.45
2018-12-27T00:26:26.028Z,96.97
2018-12-27T00:27:24.613Z,97.07
2018-12-27T00:28:23.308Z,97.45
2018-12-27T00:29:21.764Z,97.54
2018-12-27T00:30:20.288Z,97.83
2018-12-27T00:31:18.825Z,98.21
2018-12-27T00:32:17.346Z,98.58
2018-12-27T00:33:15.890Z,98.77
2018-12-27T00:34:14.414Z,98.16
2018-12-27T00:35:13.075Z,99.1
2018-12-27T00:36:11.598Z,98.82
2018-12-27T00:37:10.165Z,99.01
2018-12-27T00:38:08.874Z,99.1
2018-12-27T00:39:07.612Z,99.39
2018-12-27T00:40:06.159Z,98.96
2018-12-27T00:41:04.860Z,98.68
2018-12-27T00:42:03.439Z,98.77
2018-12-27T00:43:01.970Z,98.77
2018-12-27T00:44:00.573Z,97.83
2018-12-27T00:44:59.142Z,98.11
2018-12-27T00:45:57.692Z,98.77
2018-12-27T00:46:56.216Z,98.58
2018-12-27T00:47:55.086Z,98.77
2018-12-27T00:48:53.792Z,98.3
2018-12-27T00:49:52.311Z,98.02
2018-12-27T00:50:51.165Z,98.39
2018-12-27T00:51:49.693Z,98.39
2018-12-27T00:52:48.225Z,98.3
2018-12-27T00:53:46.814Z,98.39
2018-12-27T00:54:45.464Z,98.11
2018-12-27T00:55:43.983Z,98.68
2018-12-27T00:56:42.696Z,98.3
2018-12-27T00:57:41.544Z,98.02
2018-12-27T00:58:40.085Z,98.39
2018-12-27T00:59:38.647Z,98.3
2018-12-27T01:00:37.348Z,98.39
2018-12-27T01:01:35.884Z,98.02
2018-12-27T01:02:34.395Z,98.11
2018-12-27T01:03:33.263Z,98.77
2018-12-27T01:04:32.054Z,98.25
2018-12-27T01:05:30.501Z,98.58
2018-12-27T01:06:29.204Z,98.58
2018-12-27T01:07:27.911Z,98.96
2018-12-27T01:08:26.373Z,98.49
2018-12-27T01:09:24.905Z,98.39
2018-12-27T01:10:23.428Z,98.77
2018-12-27T01:11:22.014Z,98.58
2018-12-27T01:12:20.904Z,98.3
2018-12-27T01:13:19.539Z,98.58
2018-12-27T01:14:18.102Z,98.96
2018-12-27T01:15:16.805Z,98.49
2018-12-27T01:16:15.479Z,98.77
2018-12-27T01:17:14.032Z,99.34
2018-12-27T01:18:12.645Z,98.87
2018-12-27T01:20:53.070Z,98.39
2018-12-27T01:21:51.705Z,98.96
2018-12-27T01:22:50.268Z,99.15
2018-12-27T01:23:49.087Z,98.87
2018-12-27T01:24:47.546Z,99.44
2018-12-27T01:25:46.069Z,99.15
2018-12-27T01:26:44.646Z,99.15
2018-12-27T01:27:43.228Z,98.96
2018-12-27T01:28:41.691Z,99.15
2018-12-27T01:29:40.258Z,99.25
2018-12-27T01:30:39.024Z,99.06
2018-12-27T01:31:37.847Z,98.87
2018-12-27T01:32:36.357Z,98.96
2018-12-27T01:33:34.958Z,98.77
2018-12-27T01:34:33.599Z,99.25
2018-12-27T01:35:32.150Z,98.96
2018-12-27T01:36:30.660Z,98.49
2018-12-27T01:37:29.215Z,98.58
2018-12-27T01:38:27.775Z,98.87
2018-12-27T01:39:26.327Z,98.3
2018-12-27T01:40:24.832Z,98.77
2018-12-27T01:41:23.386Z,99.44
2018-12-27T01:42:21.917Z,98.3
2018-12-27T01:43:20.428Z,98.77
2018-12-27T01:44:18.950Z,98.39
2018-12-27T01:45:17.470Z,98.49
2018-12-27T01:46:16.026Z,98.39
2018-12-27T01:47:14.661Z,98.49
2018-12-27T01:48:13.605Z,98.58
2018-12-27T01:49:12.134Z,98.87
2018-12-27T01:50:12.207Z,98.49
2018-12-27T01:51:09.503Z,98.02
2018-12-27T01:52:08.069Z,98.49
2018-12-27T01:53:06.658Z,98.87
2018-12-27T01:54:05.500Z,98.3
2018-12-27T01:55:04.046Z,98.77
2018-12-27T01:56:02.604Z,98.58
2018-12-27T01:57:01.390Z,98.58
2018-12-27T01:57:59.928Z,98.77
2018-12-27T01:58:58.445Z,98.11
2018-12-27T01:59:57.082Z,98.02
2018-12-27T02:00:55.681Z,98.3
2018-12-27T02:01:54.210Z,98.77
2018-12-27T02:02:52.746Z,98.87
2018-12-27T02:03:51.551Z,98.39
2018-12-27T02:04:50.092Z,98.58
2018-12-27T02:05:48.799Z,98.77
2018-12-27T02:06:47.634Z,98.39
2018-12-27T02:07:46.180Z,98.11
2018-12-27T02:08:44.702Z,97.83
2018-12-27T02:09:43.259Z,97.73
2018-12-27T02:10:41.809Z,97.73
2018-12-27T02:11:40.342Z,97.64
2018-12-27T02:12:38.853Z,97.54
2018-12-27T02:13:37.403Z,97.73
2018-12-27T02:14:35.915Z,97.64
2018-12-27T02:15:34.487Z,97.83
2018-12-27T02:16:32.993Z,97.73
2018-12-27T02:17:31.551Z,98.02
2018-12-27T02:18:30.088Z,98.02
2018-12-27T02:19:28.930Z,97.35
2018-12-27T02:20:27.622Z,97.83
2018-12-27T02:21:26.177Z,97.83
2018-12-27T02:22:24.783Z,97.83
2018-12-27T02:23:23.523Z,97.83
2018-12-27T02:24:22.042Z,97.45
2018-12-27T02:25:20.550Z,97.73
2018-12-27T02:26:19.098Z,97.73
2018-12-27T02:27:17.654Z,97.83
2018-12-27T02:28:16.204Z,97.54
2018-12-27T02:29:15.048Z,97.73
2018-12-27T02:30:13.599Z,97.64
2018-12-27T02:31:12.155Z,97.26
2018-12-27T02:32:10.702Z,97.83
2018-12-27T02:33:09.474Z,97.64
2018-12-27T02:34:08.005Z,97.54
2018-12-27T02:35:06.523Z,97.83
2018-12-27T02:36:05.158Z,98.11
2018-12-27T02:37:03.729Z,97.83
2018-12-27T02:38:02.235Z,97.83
2018-12-27T02:39:00.883Z,98.11
2018-12-27T02:39:59.581Z,98.21
2018-12-27T02:40:58.119Z,97.64
2018-12-27T02:41:56.800Z,97.83
2018-12-27T02:42:55.600Z,98.02
2018-12-27T02:43:54.135Z,97.54
2018-12-27T02:44:52.669Z,98.58
2018-12-27T02:45:51.381Z,98.21
2018-12-27T02:46:49.873Z,98.49
2018-12-27T02:47:48.463Z,98.3
2018-12-27T02:48:46.939Z,98.68
2018-12-27T02:49:45.475Z,98.49
2018-12-27T02:50:44.007Z,98.49
2018-12-27T02:51:42.592Z,98.77
2018-12-27T02:52:41.193Z,98.3
2018-12-27T02:53:39.714Z,98.77
2018-12-27T02:56:20.068Z,98.02
2018-12-27T02:57:18.766Z,97.92
2018-12-27T02:58:17.482Z,98.96
2018-12-27T02:59:16.035Z,98.21
2018-12-27T03:00:14.564Z,98.02
2018-12-27T03:01:13.081Z,97.73
2018-12-27T03:02:11.640Z,97.45
2018-12-27T03:03:10.203Z,97.26
2018-12-27T03:04:08.827Z,97.83
2018-12-27T03:05:07.498Z,97.83
2018-12-27T03:06:06.071Z,97.64
2018-12-27T03:07:04.595Z,97.64
2018-12-27T03:08:03.418Z,98.02
2018-12-27T03:09:01.992Z,97.83
2018-12-27T03:10:00.519Z,97.26
2018-12-27T03:10:59.124Z,97.16
2018-12-27T03:11:57.709Z,97.54
2018-12-27T03:12:56.261Z,97.83
2018-12-27T03:13:54.825Z,97.45
2018-12-27T03:14:53.333Z,97.26
2018-12-27T03:15:51.861Z,97.35
2018-12-27T03:16:50.396Z,96.5
2018-12-27T03:17:49.056Z,96.69
2018-12-27T03:18:47.726Z,96.69
2018-12-27T03:19:46.258Z,96.59
2018-12-27T03:20:44.900Z,97.26
2018-12-27T03:21:43.625Z,96.88
2018-12-27T03:22:42.225Z,97.16
2018-12-27T03:23:40.777Z,97.83
2018-12-27T03:24:39.414Z,97.83
2018-12-27T03:25:37.964Z,97.73
2018-12-27T03:26:36.495Z,97.64
2018-12-27T03:27:34.988Z,97.73
2018-12-27T03:28:33.544Z,97.83
2018-12-27T03:29:32.058Z,97.73
2018-12-27T03:30:30.587Z,97.45
2018-12-27T03:31:29.168Z,97.73
2018-12-27T03:32:27.703Z,97.54
2018-12-27T03:33:26.258Z,97.35
2018-12-27T03:34:25.121Z,97.35
2018-12-27T03:35:23.823Z,97.16
2018-12-27T03:36:22.337Z,96.78
2018-12-27T03:37:21.011Z,96.59
2018-12-27T03:38:19.682Z,96.88
2018-12-27T03:39:18.262Z,97.07
2018-12-27T03:40:16.873Z,96.69
2018-12-27T03:41:15.490Z,96.97
2018-12-27T03:42:14.010Z,97.16
2018-12-27T03:43:12.699Z,97.16
2018-12-27T03:44:11.611Z,97.16
2018-12-27T03:45:10.155Z,97.26
2018-12-27T03:46:08.709Z,97.35
2018-12-27T03:47:07.295Z,97.07
2018-12-27T03:48:05.840Z,97.16
2018-12-27T03:49:04.401Z,96.97
2018-12-27T03:50:02.949Z,97.16
2018-12-27T03:51:01.496Z,97.26
2018-12-27T03:52:00.027Z,97.16
2018-12-27T03:54:22.775Z,97.49
2018-12-27T03:55:21.592Z,97.45
2018-12-27T03:56:20.103Z,97.16
2018-12-27T03:57:18.638Z,97.64
2018-12-27T03:58:17.318Z,97.16
2018-12-27T03:59:15.890Z,97.45
2018-12-27T04:00:14.420Z,96.88
2018-12-27T04:01:12.970Z,96.69
2018-12-27T04:02:11.486Z,96.97
2018-12-27T04:03:10.048Z,97.07
2018-12-27T04:04:08.593Z,97.26
2018-12-27T04:05:07.454Z,97.16
2018-12-27T04:07:47.855Z,97.26
2018-12-27T04:08:46.396Z,97.54
2018-12-27T04:09:44.916Z,96.88
2018-12-27T04:10:43.414Z,97.54
2018-12-27T04:11:42.019Z,97.35
2018-12-27T04:12:40.582Z,97.54
2018-12-27T04:13:39.465Z,97.83
2018-12-27T04:14:38.069Z,97.87
2018-12-27T04:15:36.677Z,98.21
2018-12-27T04:16:35.364Z,97.64
2018-12-27T04:17:33.893Z,97.92
2018-12-27T04:18:32.417Z,97.73
2018-12-27T04:19:32.975Z,98.02
2018-12-27T04:20:29.620Z,97.45
2018-12-27T04:21:28.149Z,97.35
2018-12-27T04:22:26.693Z,97.83
2018-12-27T04:23:25.246Z,96.97
2018-12-27T04:24:23.813Z,97.16
2018-12-27T04:36:15.386Z,97.16
2018-12-27T04:37:13.922Z,97.26
2018-12-27T04:38:12.450Z,96.59
2018-12-27T04:39:11.152Z,96.88
2018-12-27T04:40:09.717Z,97.16
2018-12-27T04:41:08.268Z,97.26
2018-12-27T04:42:06.787Z,97.54
2018-12-27T04:43:05.329Z,97.26
2018-12-27T04:44:03.888Z,96.92
2018-12-27T04:45:02.401Z,96.88
2018-12-27T04:46:00.914Z,97.07
2018-12-27T04:46:59.461Z,96.69
2018-12-27T04:47:58.033Z,96.69
2018-12-27T04:48:56.587Z,96.5
2018-12-27T04:49:55.370Z,96.22
2018-12-27T04:50:53.937Z,96.03
2018-12-27T04:51:52.481Z,96.69
2018-12-27T04:52:51.210Z,96.5
2018-12-27T04:53:49.884Z,96.88
2018-12-27T04:54:48.428Z,96.88
2018-12-27T04:55:46.952Z,96.97
2018-12-27T04:56:45.496Z,97.16
2018-12-27T04:57:44.006Z,97.16
2018-12-27T04:58:42.563Z,97.26
2018-12-27T04:59:41.081Z,96.69
2018-12-27T05:00:39.628Z,96.41
2018-12-27T05:01:38.176Z,96.31
2018-12-27T05:02:36.732Z,96.41
2018-12-27T05:03:35.289Z,96.5
2018-12-27T05:04:33.819Z,96.22
2018-12-27T05:05:32.354Z,96.45
2018-12-27T05:06:31.196Z,96.88
2018-12-27T05:07:29.807Z,96.88
2018-12-27T05:08:28.385Z,96.59
2018-12-27T05:09:27.023Z,96.5
2018-12-27T05:10:25.696Z,96.22
2018-12-27T05:11:24.233Z,96.03
2018-12-27T05:12:22.754Z,96.5
2018-12-27T05:13:21.361Z,96.5
2018-12-27T05:14:19.891Z,96.45
2018-12-27T05:15:18.426Z,96.97
2018-12-27T05:16:16.945Z,97.11
2018-12-27T05:17:15.558Z,97.26
2018-12-27T05:18:14.128Z,97.26
2018-12-27T05:19:12.649Z,96.97
2018-12-27T05:20:11.421Z,97.26
2018-12-27T05:21:09.970Z,97.07
2018-12-27T05:22:08.571Z,96.41
2018-12-27T05:23:07.282Z,96.5
2018-12-27T05:24:05.910Z,96.5
2018-12-27T05:25:04.412Z,96.69
2018-12-27T05:26:02.975Z,96.5
2018-12-27T05:27:01.507Z,96.69
2018-12-27T05:28:00.031Z,97.02
2018-12-27T05:28:58.564Z,97.11
2018-12-27T05:29:58.495Z,97.87
2018-12-27T05:30:55.642Z,98.06
2018-12-27T05:31:54.141Z,97.59
2018-12-27T05:32:52.699Z,98.16
2018-12-27T05:33:51.213Z,98.72
2018-12-27T05:34:49.703Z,98.63
2018-12-27T05:35:48.259Z,98.91
2018-12-27T05:36:46.790Z,98.06
2018-12-27T05:37:45.316Z,98.06
2018-12-27T05:38:43.854Z,98.54
2018-12-27T05:39:42.365Z,97.87
2018-12-27T05:40:40.923Z,98.63
2018-12-27T05:41:39.605Z,97.87
2018-12-27T05:42:38.161Z,98.54
2018-12-27T05:43:36.859Z,98.06
2018-12-27T05:44:35.681Z,97.59
2018-12-27T05:45:34.259Z,98.16
2018-12-27T05:46:32.839Z,98.25
2018-12-27T05:47:31.428Z,98.72
2018-12-27T05:48:29.972Z,98.35
2018-12-27T05:49:28.488Z,98.35
2018-12-27T05:50:27.011Z,98.82
2018-12-27T05:51:25.648Z,98.44
2018-12-27T05:52:24.197Z,98.25
2018-12-27T05:53:22.997Z,98.54
2018-12-27T05:54:21.661Z,98.16
2018-12-27T05:55:20.196Z,97.97
2018-12-27T05:56:18.880Z,97.97
2018-12-27T05:57:17.541Z,97.68
2018-12-27T05:58:16.111Z,97.68
2018-12-27T05:59:14.646Z,97.78
2018-12-27T06:00:13.218Z,97.07
2018-12-27T06:01:11.737Z,97.21
2018-12-27T06:02:10.310Z,97.21
2018-12-27T06:03:09.322Z,97.68
2018-12-27T06:04:07.900Z,97.68
2018-12-27T06:05:06.450Z,97.78
2018-12-27T06:06:05.171Z,97.4
2018-12-27T06:07:03.699Z,97.21
2018-12-27T06:08:02.247Z,97.68
2018-12-27T06:09:00.750Z,97.59
2018-12-27T06:09:59.300Z,97.68
2018-12-27T06:10:57.835Z,98.16
2018-12-27T06:11:56.388Z,97.59
2018-12-27T06:12:54.907Z,97.78
2018-12-27T06:13:53.452Z,97.83
2018-12-27T06:14:51.977Z,97.4
2018-12-27T06:15:50.544Z,97.26
2018-12-27T06:16:49.495Z,96.92
2018-12-27T06:17:48.023Z,97.16
2018-12-27T06:18:46.550Z,97.07
2018-12-27T06:19:45.238Z,97.16
2018-12-27T06:20:43.915Z,96.64
2018-12-27T06:21:42.445Z,97.21
2018-12-27T06:22:40.997Z,97.78
2018-12-27T06:23:39.521Z,97.59
2018-12-27T06:24:38.091Z,98.16
2018-12-27T06:25:36.638Z,97.87
2018-12-27T06:26:35.179Z,98.16
2018-12-27T06:27:33.721Z,98.44
2018-12-27T06:28:32.270Z,97.87
2018-12-27T06:29:31.055Z,97.59
2018-12-27T06:30:29.842Z,97.49
2018-12-27T06:31:28.356Z,98.06
2018-12-27T06:32:27.078Z,97.49
2018-12-27T06:33:25.649Z,98.35
2018-12-27T06:34:24.207Z,97.97
2018-12-27T06:35:22.707Z,97.59
2018-12-27T06:36:21.231Z,97.59
2018-12-27T06:37:19.747Z,97.68
2018-12-27T06:38:18.276Z,97.59
2018-12-27T06:39:16.807Z,97.83
2018-12-27T06:40:15.378Z,97.21
2018-12-27T06:42:55.722Z,97.02
2018-12-27T06:43:54.283Z,97.11
2018-12-27T06:44:53.042Z,96.97
2018-12-27T06:45:51.770Z,97.07
2018-12-27T06:46:50.343Z,96.55
2018-12-27T06:47:48.861Z,96.69
2018-12-27T06:48:47.409Z,96.41
2018-12-27T06:49:45.968Z,96.5
2018-12-27T06:50:44.521Z,96.41
2018-12-27T06:51:43.418Z,96.12
2018-12-27T06:52:41.939Z,96.22
2018-12-27T06:53:40.553Z,95.93
2018-12-27T06:54:39.323Z,95.65
2018-12-27T06:55:37.964Z,95.65
2018-12-27T06:56:36.524Z,95.74
2018-12-27T06:57:35.052Z,95.5
2018-12-27T06:58:37.660Z,96.26
2018-12-27T06:59:32.141Z,96.12
2018-12-27T07:01:55.109Z,96.41
2018-12-27T07:02:53.784Z,96.17
2018-12-27T07:03:52.384Z,96.36
2018-12-27T07:04:50.894Z,96.55
2018-12-27T07:05:49.451Z,96.64
2018-12-27T07:06:47.990Z,96.64
2018-12-27T07:07:46.499Z,96.73
2018-12-27T07:08:45.492Z,96.45
2018-12-27T07:09:44.006Z,96.64
2018-12-27T07:10:42.661Z,96.45
2018-12-27T07:11:41.460Z,96.92
2018-12-27T07:12:40.177Z,97.4
2018-12-27T07:13:39.044Z,97.78
2018-12-27T07:14:37.689Z,97.87
2018-12-27T07:15:36.248Z,98.72
2018-12-27T07:16:34.932Z,98.44
2018-12-27T07:17:33.631Z,98.25
2018-12-27T07:18:32.176Z,98.44
2018-12-27T07:19:30.658Z,97.87
2018-12-27T07:20:29.192Z,98.06
2018-12-27T07:21:27.741Z,98.06
2018-12-27T07:22:26.299Z,97.97
2018-12-27T07:23:24.832Z,98.06
2018-12-27T07:24:23.498Z,98.25
2018-12-27T07:25:22.008Z,98.63
2018-12-27T07:26:20.632Z,98.91
2018-12-27T07:27:19.296Z,99.39
2018-12-27T07:28:17.815Z,98.91
2018-12-27T07:29:16.347Z,98.91
2018-12-27T07:30:14.902Z,99.2
2018-12-27T07:31:13.640Z,99.39
2018-12-27T07:32:12.145Z,99.72
2018-12-27T07:33:10.647Z,99.72
2018-12-27T07:34:09.403Z,99.86
2018-12-27T07:35:07.931Z,99.99
2018-12-27T07:36:06.458Z,99.99
2018-12-27T07:37:05.001Z,99.25
2018-12-27T07:38:03.524Z,98.58
2018-12-27T07:39:02.104Z,98.96
2018-12-27T07:40:00.753Z,98.3
2018-12-27T07:40:59.487Z,99.1
2018-12-27T07:41:58.047Z,99.44
2018-12-27T07:42:56.559Z,99.25
2018-12-27T07:43:55.359Z,99.34
2018-12-27T07:44:53.909Z,99.72
2018-12-27T07:45:52.419Z,99.99
2018-12-27T07:46:51.049Z,99.99
2018-12-27T07:47:49.777Z,99.53
2018-12-27T07:48:48.322Z,99.25
2018-12-27T07:49:47.132Z,98.96
2018-12-27T07:50:45.867Z,99.25
2018-12-27T07:51:44.424Z,99.2
2018-12-27T07:52:43.107Z,99.91
2018-12-27T07:53:41.840Z,99.77
2018-12-27T07:54:40.260Z,99.48
2018-12-27T07:55:38.810Z,99.48
2018-12-27T07:56:37.453Z,99.29
2018-12-27T07:57:36.054Z,99.99
2018-12-27T07:58:34.791Z,99.99
2018-12-27T07:59:33.654Z,99.72
2018-12-27T08:00:32.135Z,99.82
2018-12-27T08:01:30.691Z,99.99
2018-12-27T08:02:29.346Z,99.82
2018-12-27T08:03:27.903Z,98.58
2018-12-27T08:04:26.459Z,99.72
2018-12-27T08:05:24.937Z,99.99
2018-12-27T08:06:23.520Z,99.99
2018-12-27T08:07:22.169Z,99.99
2018-12-27T08:08:20.705Z,99.99
2018-12-27T08:09:19.524Z,99.99
2018-12-27T08:10:18.109Z,99.99
2018-12-27T08:11:16.677Z,99.99
2018-12-27T08:12:15.363Z,99.99
2018-12-27T08:13:13.991Z,99.99
2018-12-27T08:14:12.559Z,99.99
2018-12-27T08:15:11.128Z,99.99
2018-12-27T08:16:09.641Z,99.99
2018-12-27T08:17:08.178Z,99.99
2018-12-27T08:18:06.811Z,99.99
2018-12-27T08:19:05.597Z,99.99
2018-12-27T08:20:04.097Z,99.99
2018-12-27T08:21:02.612Z,99.99
2018-12-27T08:22:01.235Z,99.99
2018-12-27T08:22:59.906Z,99.99
2018-12-27T08:23:58.451Z,99.99
2018-12-27T08:24:57.140Z,99.99
2018-12-27T08:25:55.787Z,99.99
2018-12-27T08:26:54.417Z,99.99
2018-12-27T08:27:53.270Z,99.99
2018-12-27T08:28:51.875Z,99.99
2018-12-27T08:29:50.372Z,99.99
2018-12-27T08:30:48.972Z,99.99
2018-12-27T08:31:47.667Z,99.99
2018-12-27T08:32:46.220Z,99.99
2018-12-27T08:33:44.779Z,99.99
2018-12-27T08:34:43.372Z,99.99
2018-12-27T08:35:41.889Z,99.99
2018-12-27T08:36:40.459Z,99.99
2018-12-27T08:37:38.973Z,99.99
2018-12-27T08:38:37.590Z,99.99
2018-12-27T08:39:36.096Z,99.99
2018-12-27T08:40:34.600Z,99.99
2018-12-27T08:41:33.463Z,99.99
2018-12-27T08:42:31.978Z,99.99
2018-12-27T08:43:30.556Z,99.99
2018-12-27T08:44:29.395Z,99.99
2018-12-27T08:45:28.269Z,99.99
2018-12-27T08:46:27.067Z,99.99
2018-12-27T08:47:25.782Z,99.99
2018-12-27T08:48:24.269Z,99.99
2018-12-27T08:49:22.944Z,99.99
2018-12-27T08:50:21.616Z,99.99
2018-12-27T08:51:20.317Z,99.99
2018-12-27T08:52:19.169Z,99.99
2018-12-27T08:53:17.902Z,99.99
2018-12-27T08:54:16.393Z,99.99
2018-12-27T08:55:15.070Z,99.99
2018-12-27T08:56:13.803Z,99.99
2018-12-27T08:57:12.319Z,99.99
2018-12-27T08:58:10.868Z,99.99
2018-12-27T08:59:09.397Z,99.99
2018-12-27T09:00:07.935Z,99.99
2018-12-27T09:01:06.461Z,99.99
2018-12-27T09:02:05.044Z,99.99
2018-12-27T09:03:03.685Z,99.99
2018-12-27T09:04:02.241Z,99.99
2018-12-27T09:05:00.900Z,99.99
2018-12-27T09:05:59.694Z,99.99
2018-12-27T09:06:58.187Z,99.99
2018-12-27T09:07:56.717Z,99.99
2018-12-27T09:08:55.423Z,99.99
2018-12-27T09:09:53.980Z,99.99
2018-12-27T09:10:52.514Z,99.99
2018-12-27T09:11:51.148Z,99.99
2018-12-27T09:12:49.681Z,99.99
2018-12-27T09:13:48.219Z,99.99
2018-12-27T09:14:46.747Z,99.99
2018-12-27T09:15:45.529Z,99.99
2018-12-27T09:16:44.080Z,99.99
2018-12-27T09:17:42.673Z,99.99
2018-12-27T09:18:41.643Z,99.99
2018-12-27T09:19:40.172Z,99.99
2018-12-27T09:20:38.721Z,99.99
2018-12-27T09:21:37.191Z,99.99
2018-12-27T09:22:35.780Z,99.99
2018-12-27T09:23:34.493Z,99.99
2018-12-27T09:24:33.223Z,99.99
2018-12-27T09:25:31.946Z,99.99
2018-12-27T09:26:30.582Z,99.99
2018-12-27T09:27:29.229Z,99.99
2018-12-27T09:28:27.803Z,99.99
2018-12-27T09:29:26.343Z,99.99
2018-12-27T09:30:24.919Z,99.99
2018-12-27T09:31:23.656Z,99.99
2018-12-27T09:32:22.193Z,99.99
2018-12-27T09:33:20.955Z,99.99
2018-12-27T09:34:19.742Z,99.99
2018-12-27T09:35:18.296Z,99.99
2018-12-27T09:36:16.795Z,99.99
2018-12-27T09:37:15.454Z,99.99
2018-12-27T09:38:14.009Z,99.99
2018-12-27T09:39:12.551Z,99.99
2018-12-27T09:40:11.465Z,99.99
2018-12-27T09:41:09.978Z,99.99
2018-12-27T09:42:08.503Z,99.99
2018-12-27T09:43:07.266Z,99.99
2018-12-27T09:44:06.268Z,99.99
2018-12-27T09:45:04.941Z,99.99
2018-12-27T09:46:03.690Z,99.99
2018-12-27T09:47:02.259Z,99.99
2018-12-27T09:48:00.846Z,99.99
2018-12-27T09:48:59.476Z,99.99
2018-12-27T09:49:58.047Z,99.99
2018-12-27T09:50:56.581Z,99.99
2018-12-27T09:52:01.849Z,99.99
2018-12-27T09:52:53.718Z,99.99
2018-12-27T09:53:52.238Z,99.99
2018-12-27T09:54:51.178Z,99.99
2018-12-27T09:55:49.866Z,99.99
2018-12-27T09:56:48.391Z,99.99
2018-12-27T09:57:46.988Z,99.99
2018-12-27T09:58:45.787Z,99.99
2018-12-27T09:59:44.328Z,99.99
2018-12-27T10:00:42.873Z,99.99
2018-12-27T10:01:41.647Z,99.99
2018-12-27T10:02:40.220Z,99.99
2018-12-27T10:03:41.001Z,99.99
2018-12-27T10:04:39.827Z,99.99
2018-12-27T10:05:38.387Z,99.99
2018-12-27T10:06:37.242Z,99.99
2018-12-27T10:07:35.934Z,99.99
2018-12-27T10:08:34.484Z,99.99
2018-12-27T10:09:33.143Z,99.99
2018-12-27T10:10:31.921Z,99.99
2018-12-27T10:11:30.440Z,99.99
2018-12-27T10:12:29.293Z,99.99
2018-12-27T10:13:27.839Z,99.99
2018-12-27T10:14:26.376Z,99.99
2018-12-27T10:15:25.209Z,99.99
2018-12-27T10:16:23.928Z,99.99
2018-12-27T10:17:22.523Z,99.99
2018-12-27T10:18:21.055Z,99.99
2018-12-27T10:19:19.665Z,99.99
2018-12-27T10:20:18.217Z,99.99
2018-12-27T10:21:16.945Z,99.99
2018-12-27T10:22:15.659Z,99.99
2018-12-27T10:23:14.297Z,99.99
2018-12-27T10:24:12.798Z,99.99
2018-12-27T10:25:11.658Z,99.99
2018-12-27T10:26:10.160Z,99.99
2018-12-27T10:27:08.891Z,99.99
2018-12-27T10:28:07.628Z,99.99
2018-12-27T10:29:06.202Z,99.99
2018-12-27T10:30:04.862Z,99.99
2018-12-27T10:31:03.539Z,99.99
2018-12-27T10:32:02.093Z,99.99
2018-12-27T10:33:00.763Z,99.99
2018-12-27T10:33:59.306Z,99.99
2018-12-27T10:34:57.840Z,99.99
2018-12-27T10:35:56.393Z,99.99
2018-12-27T10:36:55.305Z,99.99
2018-12-27T10:37:53.945Z,99.99
2018-12-27T10:38:52.588Z,99.99
2018-12-27T10:39:51.182Z,99.99
2018-12-27T10:40:49.799Z,99.99
2018-12-27T10:41:48.289Z,99.99
2018-12-27T10:42:46.818Z,99.99
2018-12-27T10:43:45.421Z,99.99
2018-12-27T10:44:44.067Z,99.99
2018-12-27T10:45:42.626Z,99.99
2018-12-27T10:46:41.438Z,99.99
2018-12-27T10:47:40.101Z,99.99
2018-12-27T10:48:38.762Z,99.99
2018-12-27T10:49:37.547Z,99.99
2018-12-27T10:50:36.106Z,99.99
2018-12-27T10:51:34.701Z,99.99
2018-12-27T10:52:33.491Z,99.99
2018-12-27T10:53:32.081Z,99.99
2018-12-27T10:54:30.746Z,99.99
2018-12-27T10:55:29.397Z,99.99
2018-12-27T10:56:28.076Z,99.99
2018-12-27T10:57:26.621Z,99.99
2018-12-27T10:58:25.570Z,99.99
2018-12-27T10:59:24.171Z,99.99
2018-12-27T11:00:22.753Z,99.99
2018-12-27T11:01:21.467Z,99.99
2018-12-27T11:02:20.101Z,99.99
2018-12-27T11:03:18.703Z,99.99
2018-12-27T11:04:17.587Z,99.99
2018-12-27T11:05:16.168Z,99.99
2018-12-27T11:06:14.831Z,99.99
2018-12-27T11:07:13.706Z,99.99
2018-12-27T11:08:12.253Z,99.99
2018-12-27T11:09:10.836Z,99.99
2018-12-27T11:10:09.365Z,99.99
2018-12-27T11:11:07.993Z,99.99
2018-12-27T11:12:06.424Z,99.99
2018-12-27T11:13:05.395Z,99.63
2018-12-27T11:14:03.993Z,98.11
2018-12-27T11:15:02.444Z,98.87
2018-12-27T11:16:01.308Z,99.99
2018-12-27T11:16:59.886Z,99.99
2018-12-27T11:17:58.355Z,99.99
2018-12-27T11:18:56.891Z,99.63
2018-12-27T11:19:55.448Z,99.63
2018-12-27T11:20:53.985Z,98.39
2018-12-27T11:21:52.518Z,97.92
2018-12-27T11:22:51.073Z,98.02
2018-12-27T11:23:49.760Z,98.87
2018-12-27T11:24:48.327Z,97.83
2018-12-27T11:25:48.530Z,97.26
2018-12-27T11:26:45.683Z,96.78
2018-12-27T11:27:44.189Z,96.97
2018-12-27T11:28:42.824Z,97.83
2018-12-27T11:29:41.532Z,97.45
2018-12-27T11:30:40.040Z,98.02
2018-12-27T11:31:38.560Z,98.21
2018-12-27T11:32:37.096Z,97.92
2018-12-27T11:33:35.621Z,97.92
2018-12-27T11:34:34.184Z,97.26
2018-12-27T11:35:32.686Z,96.59
2018-12-27T11:36:31.206Z,96.31
2018-12-27T11:37:29.776Z,96.12
2018-12-27T11:38:28.312Z,95.45
2018-12-27T11:39:26.958Z,96.03
2018-12-27T11:40:25.640Z,96.88
2018-12-27T11:41:24.175Z,96.69
2018-12-27T11:42:22.831Z,96.69
2018-12-27T11:43:21.605Z,96.59
2018-12-27T11:44:20.140Z,97.07
2018-12-27T11:45:18.673Z,97.54
2018-12-27T11:46:17.433Z,97.26
2018-12-27T11:47:15.933Z,95.93
2018-12-27T11:48:14.512Z,95.36
2018-12-27T11:49:13.046Z,95.65
2018-12-27T11:50:11.808Z,95.93
2018-12-27T11:51:10.358Z,96.12
2018-12-27T11:52:09.288Z,96.12
2018-12-27T11:53:07.995Z,96.03
2018-12-27T11:54:06.560Z,95.17
2018-12-27T11:55:05.065Z,95.26
2018-12-27T11:56:03.615Z,94.46
2018-12-27T11:57:02.314Z,94.13
2018-12-27T11:58:01.070Z,94.51
2018-12-27T11:58:59.759Z,94.7
2018-12-27T11:59:58.348Z,95.07
2018-12-27T12:00:57.057Z,95.26
2018-12-27T12:01:55.643Z,95.45
2018-12-27T12:02:54.255Z,96.12
2018-12-27T12:03:53.101Z,95.45
2018-12-27T12:04:51.801Z,95.65
2018-12-27T12:05:50.357Z,95.36
2018-12-27T12:06:49.037Z,95.65
2018-12-27T12:07:47.794Z,95.55
2018-12-27T12:08:46.358Z,95.26
2018-12-27T12:09:45.254Z,94.42
2018-12-27T12:10:43.907Z,94.98
2018-12-27T12:11:42.428Z,95.36
2018-12-27T12:12:41.093Z,95.36
2018-12-27T12:13:39.799Z,96.22
2018-12-27T12:14:38.646Z,96.03
2018-12-27T12:15:37.335Z,96.22
2018-12-27T12:16:36.017Z,95.36
2018-12-27T12:17:34.606Z,95.36
2018-12-27T12:18:33.333Z,95.26
2018-12-27T12:19:31.985Z,94.23
2018-12-27T12:20:30.521Z,94.51
2018-12-27T12:21:29.057Z,95.36
2018-12-27T12:22:27.805Z,95.74
2018-12-27T12:23:26.330Z,95.55
2018-12-27T12:24:25.096Z,96.22
2018-12-27T12:25:23.773Z,96.12
2018-12-27T12:26:22.341Z,96.12
2018-12-27T12:27:20.865Z,96.59
2018-12-27T12:29:36.786Z,96.59
2018-12-27T12:30:35.569Z,96.5
2018-12-27T12:31:34.103Z,96.83
2018-12-27T12:32:32.749Z,97.45
2018-12-27T12:33:31.418Z,96.88
2018-12-27T12:34:30.022Z,96.88
2018-12-27T12:35:28.614Z,97.26
2018-12-27T12:36:27.175Z,97.07
2018-12-27T12:37:25.713Z,96.41
2018-12-27T12:38:24.216Z,96.5
2018-12-27T12:39:23.815Z,96.59
2018-12-27T12:42:04.470Z,95.93
2018-12-27T12:43:03.039Z,96.22
2018-12-27T12:44:01.690Z,96.69
2018-12-27T12:45:00.171Z,96.59
2018-12-27T12:45:58.675Z,95.55
2018-12-27T12:46:57.225Z,96.22
2018-12-27T12:47:55.862Z,95.93
2018-12-27T12:48:54.420Z,96.69
2018-12-27T12:49:53.247Z,96.5
2018-12-27T12:50:51.944Z,96.22
2018-12-27T12:51:50.501Z,96.5
2018-12-27T12:52:49.127Z,96.97
2018-12-27T12:53:47.814Z,97.16
2018-12-27T12:54:46.382Z,96.69
2018-12-27T12:55:45.030Z,97.35
2018-12-27T12:56:43.851Z,96.5
2018-12-27T12:57:42.405Z,96.59
2018-12-27T13:00:22.690Z,95.55
2018-12-27T13:02:45.370Z,96.5
2018-12-27T13:03:43.921Z,95.93